Los Posos, Valles Caldera, New Mexico Weather observations

Data are for 10 minute period ending at time listed.
 Day   Time   Solar   Ave.   Ave.  Ave.  Vector  Max.   Baro.   Total    
  of    of     Rad.   Air    Rel.  Wind   Wind   Wind  Press.  Precip.   
Year   Day            Temp.  Hum.  Speed  Dir.   Gust                    
2017   (MST)  Kw/m2    F      %     mph   deg.    mph    mb.     in.     
-------------------------------------------------------------------------
  17    0:30   0.00   26.1    96    1.5   212     3.6   99999.0    0.00 
  17    0:40   0.00   26.0    95    1.7   211     4.2   99999.0    0.00 
  17    0:50   0.00   26.0    95    1.2   129     3.0   99999.0    0.00 
  17    1:00   0.00   25.9    95    1.4   209     3.6   99999.0    0.00 
  17    1:10   0.00   25.9    95    2.2   168     4.8   99999.0    0.00 
  17    1:20   0.00   25.8    95    2.7   176     4.2   99999.0    0.00 
  17    1:30   0.00   25.7    95    1.4   180     3.0   99999.0    0.00 
  17    1:40   0.00   25.6    95    1.9   171     4.8   99999.0    0.00 
  17    1:50   0.00   25.4    95    2.2   169     3.6   99999.0    0.00 
  17    2:00   0.00   25.2    94    1.5   201     3.0   99999.0    0.00 
  17    2:10   0.00   25.1    94    1.6   171     4.2   99999.0    0.00 
  17    2:20   0.00   25.1    95    0.5   174     3.6   99999.0    0.00 
  17    2:30   0.00   25.1    95    1.9   204     3.6   99999.0    0.00 
  17    2:40   0.00   25.1    95    1.0   190     2.4   99999.0    0.00 
  17    2:50   0.00   25.1    95    0.0   205     1.2   99999.0    0.00 
  17    3:00   0.00   25.1    95    0.6   215     2.4   99999.0    0.00 
  17    3:10   0.00   25.0    95    0.4   204     1.8   99999.0    0.00 
  17    3:20   0.00   24.9    95    1.0   227     2.4   99999.0    0.00 
  17    3:30   0.00   24.6    95    2.0   171     3.0   99999.0    0.00 
  17    3:40   0.00   24.6    95    0.7   162     2.4   99999.0    0.00 
  17    3:50   0.00   24.8    95    1.0   231     3.0   99999.0    0.00 
  17    4:00   0.00   25.0    95    2.3   196     3.6   99999.0    0.00 
  17    4:10   0.00   25.0    95    2.1   195     3.6   99999.0    0.00 
  17    4:20   0.00   25.1    95    0.9   195     2.4   99999.0    0.00 
  17    4:30   0.00   25.0    95    2.5   170     3.6   99999.0    0.00 
  17    4:40   0.00   24.9    95    3.2   174     5.4   99999.0    0.00 
  17    4:50   0.00   24.7    95    1.9   199     3.6   99999.0    0.00 
  17    5:00   0.00   24.7    95    3.1   181     5.4   99999.0    0.00 
  17    5:10   0.00   24.7    95    1.9   172     3.0   99999.0    0.00 
  17    5:20   0.00   24.7    95    2.0   162     3.0   99999.0    0.00 
  17    5:30   0.00   24.6    95    1.7   244     3.0   99999.0    0.00 
  17    5:40   0.00   24.6    95    0.4   262     1.8   99999.0    0.00 
  17    5:50   0.00   24.5    95    0.2    85     2.4   99999.0    0.00 
  17    6:00   0.00   23.6    94    0.5    57     2.4   99999.0    0.00 
  17    6:10   0.00   22.1    93    0.9   307     3.0   99999.0    0.00 
  17    6:20   0.00   19.9    93    1.6   250     3.0   99999.0    0.00 
  17    6:30   0.00   18.5    94    0.9   283     2.4   99999.0    0.00 
  17    6:40   0.00   17.8    94    1.9   227     3.0   99999.0    0.00 
  17    6:50   0.00   16.9    93    2.0   242     3.0   99999.0    0.00 
  17    7:00   0.00   15.7    92    0.1   287     1.2   99999.0    0.00 
  17    7:10   0.00   15.6    93    0.0     0     0.0   99999.0    0.00 
  17    7:20   0.00   15.7    93    0.9   241     2.4   99999.0    0.00 
  17    7:30   0.00   14.9    92    1.1   250     2.4   99999.0    0.00 
  17    7:40   0.00   14.8    93    0.8   244     2.4   99999.0    0.00 
  17    7:50   0.00   14.4    92    1.1   244     1.8   99999.0    0.00 
  17    8:00   0.00   14.0    92    1.4   237     2.4   99999.0    0.00 
  17    8:10   0.01   14.2    92    0.9   242     2.4   99999.0    0.00 
  17    8:20   0.01   14.4    92    0.1   215     1.2   99999.0    0.00 
  17    8:30   0.02   15.9    93    0.7   163     2.4   99999.0    0.00 
  17    8:40   0.06   19.9    94    1.8   124     3.0   99999.0    0.00 
  17    8:50   0.06   25.8    84    0.2     5     1.8   99999.0    0.00 
  17    9:00   0.06   28.3    72    0.7   324     1.8   99999.0    0.00 
  17    9:10   0.07   26.2    75    1.8   258     2.4   99999.0    0.00 
  17    9:20   0.07   27.5    76    1.2   248     2.4   99999.0    0.00 
  17    9:30   0.07   32.9    67    0.5   346     1.8   99999.0    0.00 
  17    9:40   0.07   30.8    68    0.1   127     1.2   99999.0    0.00 
  17    9:50   0.07   38.8    60    0.0     0     0.0   99999.0    0.00 
  17   10:00   0.07   41.1    50    1.2    53     2.4   99999.0    0.00 
  17   10:10   0.07   44.9    43    0.9    58     3.0   99999.0    0.00 
  17   10:20   0.08   44.9    40    0.5    75     2.4   99999.0    0.00 
  17   10:30   0.08   39.6    45    0.0     0     0.0   99999.0    0.00 
  17   10:40   0.08   46.5    38    0.0     0     0.0   99999.0    0.00 
  17   10:50   0.08   47.1    35    1.0   105     3.6   99999.0    0.00 
  17   11:00   0.08   38.4    49    3.6   151     6.0   99999.0    0.00 
  17   11:10   0.08   35.7    54    3.5   156     6.0   99999.0    0.00 
  17   11:20   0.08   35.8    55    3.6   151     5.4   99999.0    0.00 
  17   11:30   0.08   35.9    55    3.7   150     5.4   99999.0    0.00 
  17   11:40   0.08   37.0    54    4.1   173     6.6   99999.0    0.00 
  17   11:50   0.07   35.3    58    5.2   169     7.2   99999.0    0.00 
  17   12:00   0.07   35.2    59    5.1   166     7.2   99999.0    0.00 
  17   12:10   0.07   34.4    61    5.9   158     8.4   99999.0    0.00 
  17   12:20   0.08   35.0    59    5.5   163     8.4   99999.0    0.00 
  17   12:30   0.09   35.7    56    5.7   162     9.0   99999.0    0.00 
  17   12:40   0.08   34.7    57    6.1   154     9.0   99999.0    0.00 
  17   12:50   0.08   35.5    53    5.7   160     8.4   99999.0    0.00 
  17   13:00   0.08   35.9    56    5.1   156     7.8   99999.0    0.00 
  17   13:10   0.07   35.9    59    5.1   166     8.4   99999.0    0.00 
  17   13:20   0.08   34.6    62    6.3   148     9.0   99999.0    0.00 
  17   13:30   0.09   35.4    61    5.2   150     7.8   99999.0    0.00 
  17   13:40   0.08   35.3    59    6.2   144     7.8   99999.0    0.00 
  17   13:50   0.09   36.0    58    5.9   168     8.4   99999.0    0.00 
  17   14:00   0.08   35.8    62    5.3   172     7.8   99999.0    0.00 
  17   14:10   0.07   37.0    58    4.5   171     7.2   99999.0    0.00 
  17   14:20   0.07   36.0    60    4.3   169     6.6   99999.0    0.00 
  17   14:30   0.06   34.0    71    4.5   179     7.8   99999.0    0.00 
  17   14:40   0.05   33.0    74    5.1   177     8.4   99999.0    0.00 
  17   14:50   0.05   33.2    74    4.8   192     7.2   99999.0    0.00 
  17   15:00   0.05   33.4    74    4.2   178     7.8   99999.0    0.00 
  17   15:10   0.05   32.7    75    4.5   155     7.8   99999.0    0.00 
  17   15:20   0.04   32.7    74    4.1   145     7.2   99999.0    0.00 
  17   15:30   0.04   33.2    73    3.1   104     5.4   99999.0    0.00 
  17   15:40   0.02   33.3    74    3.9    49     6.0   99999.0    0.00 
  17   15:50   0.01   32.8    77    3.7    44     4.2   99999.0    0.00 
  17   16:00   0.02   32.3    78    1.9    83     3.0   99999.0    0.00 
  17   16:10   0.02   33.2    75    1.1   249     4.8   99999.0    0.00 
  17   16:20   0.02   32.6    73    3.1   287     6.6   99999.0    0.00 
  17   16:30   0.01   31.9    75    4.6   317     7.8   99999.0    0.00 
  17   16:40   0.01   31.1    76    5.9   328     8.4   99999.0    0.00 
  17   16:50   0.01   30.5    78    6.8   331     9.0   99999.0    0.00 
  17   17:00   0.00   30.1    80    5.7   325     8.4   99999.0    0.00 
  17   17:10   0.00   29.7    80    6.2   323     9.6   99999.0    0.00 
  17   17:20   0.00   29.4    81    4.6   322     7.8   99999.0    0.00 
  17   17:30   0.00   29.2    81    5.3   320     8.4   99999.0    0.00 
  17   17:40   0.00   29.0    81    6.5   315     9.6   99999.0    0.00 
  17   17:50   0.00   28.5    80    5.0   306     7.8   99999.0    0.00 
  17   18:00   0.00   28.0    79    4.7   294     6.6   99999.0    0.00 
  17   18:10   0.00   27.5    79    4.0   292     7.8   99999.0    0.00 
  17   18:20   0.00   27.2    79    3.0   303     6.0   99999.0    0.00 
  17   18:30   0.00   26.4    79    2.3   330     6.0   99999.0    0.00 
  17   18:40   0.00   24.7    83    2.0    68     4.2   99999.0    0.00 
  17   18:50   0.00   24.0    87    2.1   105     4.8   99999.0    0.00 
  17   19:00   0.00   22.6    87    0.0     0     0.0   99999.0    0.00 
  17   19:10   0.00   21.6    90    0.0   203     1.2   99999.0    0.00 
  17   19:20   0.00   20.2    91    0.0   243     1.2   99999.0    0.00 
  17   19:30   0.00   19.8    93    0.0     0     0.0   99999.0    0.00 
  17   19:40   0.00   18.6    92    1.5   237     3.0   99999.0    0.00 
  17   19:50   0.00   17.3    92    0.5   238     1.8   99999.0    0.00 
  17   20:00   0.00   16.8    93    0.0     0     0.0   99999.0    0.00 
  17   20:10   0.00   16.2    93    0.0     0     0.0   99999.0    0.00 
  17   20:20   0.00   15.3    93    0.2   257     2.4   99999.0    0.00 
  17   20:30   0.00   15.0    93    0.7   254     3.0   99999.0    0.00 
  17   20:40   0.00   14.5    93    0.0   250     1.2   99999.0    0.00 
  17   20:50   0.00   15.0    94    2.1   240     3.6   99999.0    0.00 
  17   21:00   0.00   13.5    92    0.3   239     1.8   99999.0    0.00 
  17   21:10   0.00   13.6    94    0.0     0     0.0   99999.0    0.00 
  17   21:20   0.00   14.0    94    2.0   238     3.0   99999.0    0.00 
  17   21:30   0.00   13.7    93    0.3   249     1.8   99999.0    0.00 
  17   21:40   0.00   12.6    92    0.2   247     1.8   99999.0    0.00 
  17   21:50   0.00   12.6    93    0.9   235     1.8   99999.0    0.00 
  17   22:00   0.00   12.0    92    0.7   296     2.4   99999.0    0.00 
  17   22:10   0.00   11.9    93    0.9   285     2.4   99999.0    0.00 
  17   22:20   0.00   12.2    94    1.2   240     3.0   99999.0    0.00 
  17   22:30   0.00   12.1    92    0.4   274     2.4   99999.0    0.00 
  17   22:40   0.00   12.1    93    0.1   297     1.2   99999.0    0.00 
  17   22:50   0.00   11.2    91    0.0     0     0.0   99999.0    0.00 
  17   23:00   0.00   10.9    92    0.0     0     0.0   99999.0    0.00 
  17   23:10   0.00   10.7    92    0.8   292     1.8   99999.0    0.00 
  17   23:20   0.00   10.6    92    1.1   259     1.8   99999.0    0.00 
  17   23:30   0.00   10.6    93    0.8   256     1.8   99999.0    0.00 
  17   23:40   0.00   11.7    93    0.1   237     1.2   99999.0    0.00 
  17   23:50   0.00   12.4    92    0.0     0     0.0   99999.0    0.00 
  18    0:00   0.00   12.0    91    0.0     0     0.0   99999.0    0.00 
  18    0:10   0.00   12.6    93    0.9   311     1.8   99999.0    0.00 
  18    0:20   0.00   13.6    94    0.5   260     1.8   99999.0    0.00 

Return to Los Posos, Valles Caldera graphs page.


Western Regional Climate Center,wrcc@dri.edu